createdAt,value
2018-09-25T00:01:47.781Z,1.10
2018-09-25T00:04:22.514Z,1.20
2018-09-25T00:06:57.163Z,1.03
2018-09-25T00:09:31.811Z,1.00
2018-09-25T00:12:06.476Z,1.13
2018-09-25T00:14:41.525Z,1.40
2018-09-25T00:17:16.157Z,1.20
2018-09-25T00:19:51.105Z,1.23
2018-09-25T00:22:25.814Z,1.00
2018-09-25T00:25:00.713Z,0.90
2018-09-25T00:27:35.429Z,1.13
2018-09-25T00:30:10.570Z,1.10
2018-09-25T00:32:45.341Z,1.50
2018-09-25T00:35:20.074Z,1.00
2018-09-25T00:37:54.885Z,1.10
2018-09-25T00:40:29.761Z,0.90
2018-09-25T00:43:04.725Z,1.35
2018-09-25T00:45:39.386Z,1.10
2018-09-25T00:48:14.376Z,1.13
2018-09-25T00:50:49.161Z,1.10
2018-09-25T00:53:23.947Z,0.80
2018-09-25T00:55:58.691Z,0.90
2018-09-25T00:58:33.220Z,0.97
2018-09-25T01:01:07.717Z,1.10
2018-09-25T01:03:42.268Z,0.90
2018-09-25T01:06:17.066Z,0.83
2018-09-25T01:08:51.813Z,1.60
2018-09-25T01:11:26.665Z,1.13
2018-09-25T01:14:02.042Z,1.10
2018-09-25T01:16:37.248Z,0.90
2018-09-25T01:19:12.309Z,1.12
2018-09-25T01:21:47.711Z,0.50
2018-09-25T01:24:22.729Z,0.90
2018-09-25T01:26:57.587Z,0.73
2018-09-25T01:29:32.300Z,1.10
2018-09-25T01:32:06.944Z,1.10
2018-09-25T01:34:41.688Z,0.70
2018-09-25T01:37:16.393Z,1.17
2018-09-25T01:39:51.438Z,0.87
2018-09-25T01:42:26.079Z,1.13
2018-09-25T01:45:01.207Z,1.20
2018-09-25T01:47:35.916Z,1.07
2018-09-25T01:50:10.616Z,1.10
2018-09-25T01:52:45.577Z,0.73
2018-09-25T01:55:20.465Z,0.73
2018-09-25T01:57:55.148Z,1.03
2018-09-25T02:00:30.105Z,0.90
2018-09-25T02:03:10.495Z,0.87
2018-09-25T02:05:45.365Z,1.13
2018-09-25T02:08:20.121Z,0.80
2018-09-25T02:10:55.125Z,1.22
2018-09-25T02:13:30.513Z,0.75
2018-09-25T02:16:05.249Z,0.90
2018-09-25T02:18:39.962Z,1.40
2018-09-25T02:21:14.723Z,0.80
2018-09-25T02:23:49.705Z,1.20
2018-09-25T02:26:24.253Z,0.80
2018-09-25T02:28:58.929Z,1.10
2018-09-25T02:31:33.774Z,0.87
2018-09-25T02:34:08.457Z,1.13
2018-09-25T02:36:43.257Z,1.13
2018-09-25T02:39:18.175Z,0.97
2018-09-25T02:41:52.905Z,0.90
2018-09-25T02:44:27.680Z,0.90
2018-09-25T02:47:02.670Z,1.20
2018-09-25T02:49:37.392Z,0.93
2018-09-25T02:52:12.188Z,0.80
2018-09-25T02:54:47.128Z,1.00
2018-09-25T02:57:22.017Z,1.00
2018-09-25T02:59:56.700Z,0.80
2018-09-25T03:02:31.749Z,0.70
2018-09-25T03:05:07.121Z,0.80
2018-09-25T03:07:42.054Z,0.73
2018-09-25T03:10:16.920Z,0.80
2018-09-25T03:12:51.665Z,0.80
2018-09-25T03:15:26.512Z,1.10
2018-09-25T03:18:01.043Z,0.90
2018-09-25T03:20:35.960Z,0.90
2018-09-25T03:23:10.464Z,1.00
2018-09-25T03:25:45.129Z,0.93
2018-09-25T03:28:19.900Z,0.60
2018-09-25T03:30:54.554Z,0.70
2018-09-25T03:33:29.396Z,0.90
2018-09-25T03:36:04.257Z,0.90
2018-09-25T03:38:39.282Z,0.77
2018-09-25T03:41:14.130Z,1.00
2018-09-25T03:43:48.907Z,0.73
2018-09-25T03:46:23.660Z,0.95
2018-09-25T03:48:58.631Z,0.70
2018-09-25T03:51:33.471Z,1.03
2018-09-25T03:54:08.108Z,1.10
2018-09-25T03:56:42.732Z,0.90
2018-09-25T03:59:17.355Z,1.05
2018-09-25T04:01:52.039Z,1.17
2018-09-25T04:04:26.926Z,0.80
2018-09-25T04:07:01.693Z,0.93
2018-09-25T04:09:36.376Z,1.20
2018-09-25T04:12:11.339Z,0.88
2018-09-25T04:14:46.183Z,0.82
2018-09-25T04:17:20.878Z,0.90
2018-09-25T04:19:55.860Z,0.95
2018-09-25T04:22:30.712Z,1.20
2018-09-25T04:25:05.304Z,0.80
2018-09-25T04:27:40.110Z,1.00
2018-09-25T04:30:14.960Z,1.00
2018-09-25T04:32:49.734Z,0.57
2018-09-25T04:35:24.598Z,0.90
2018-09-25T04:37:59.581Z,0.80
2018-09-25T04:40:34.562Z,0.90
2018-09-25T04:43:09.363Z,0.80
2018-09-25T04:45:44.153Z,1.07
2018-09-25T04:48:19.188Z,1.03
2018-09-25T04:50:54.061Z,0.70
2018-09-25T04:53:28.696Z,0.72
2018-09-25T04:56:03.533Z,1.20
2018-09-25T04:58:38.267Z,0.77
2018-09-25T05:01:12.933Z,1.13
2018-09-25T05:03:47.854Z,0.80
2018-09-25T05:06:22.869Z,0.70
2018-09-25T05:08:57.645Z,0.60
2018-09-25T05:11:32.613Z,0.90
2018-09-25T05:14:07.132Z,1.10
2018-09-25T05:16:41.903Z,0.80
2018-09-25T05:19:16.856Z,1.00
2018-09-25T05:21:51.759Z,0.77
2018-09-25T05:24:26.280Z,0.87
2018-09-25T05:27:00.934Z,0.63
2018-09-25T05:29:35.627Z,0.97
2018-09-25T05:32:10.113Z,1.33
2018-09-25T05:34:44.768Z,1.13
2018-09-25T05:37:19.785Z,0.82
2018-09-25T05:39:54.666Z,0.70
2018-09-25T05:42:29.767Z,1.00
2018-09-25T05:45:04.628Z,0.60
2018-09-25T05:47:39.310Z,0.80
2018-09-25T05:50:14.341Z,0.70
2018-09-25T05:52:49.181Z,0.88
2018-09-25T05:55:23.968Z,0.60
2018-09-25T05:57:58.982Z,0.88
2018-09-25T06:00:33.863Z,0.70
2018-09-25T06:03:08.510Z,0.87
2018-09-25T06:05:43.432Z,0.60
2018-09-25T06:08:18.825Z,0.70
2018-09-25T06:10:53.526Z,0.78
2018-09-25T06:13:28.326Z,1.20
2018-09-25T06:16:02.829Z,0.73
2018-09-25T06:18:37.513Z,0.90
2018-09-25T06:21:12.332Z,0.50
2018-09-25T06:23:47.188Z,1.10
2018-09-25T06:26:21.841Z,1.10
2018-09-25T06:28:56.872Z,0.73
2018-09-25T06:31:31.600Z,0.80
2018-09-25T06:34:06.379Z,1.10
2018-09-25T06:36:41.409Z,0.70
2018-09-25T06:39:16.759Z,1.10
2018-09-25T06:41:51.413Z,1.20
2018-09-25T06:44:26.236Z,1.23
2018-09-25T06:47:00.907Z,2.33
2018-09-25T06:49:35.926Z,3.20
2018-09-25T06:52:10.545Z,2.50
2018-09-25T06:54:45.727Z,2.47
2018-09-25T06:57:20.613Z,2.37
2018-09-25T06:59:55.276Z,1.80
2018-09-25T07:02:30.279Z,2.70
2018-09-25T07:05:05.292Z,2.60
2018-09-25T07:07:39.941Z,2.23
2018-09-25T07:10:14.759Z,2.50
2018-09-25T07:12:49.581Z,2.53
2018-09-25T07:15:24.102Z,1.83
2018-09-25T07:17:58.631Z,1.57
2018-09-25T07:20:33.105Z,2.07
2018-09-25T07:23:07.878Z,1.83
2018-09-25T07:25:42.783Z,2.10
2018-09-25T07:28:17.928Z,2.07
2018-09-25T07:30:52.652Z,2.10
2018-09-25T07:33:27.436Z,3.70
2018-09-25T07:36:02.519Z,2.63
2018-09-25T07:38:37.533Z,1.90
2018-09-25T07:41:12.048Z,2.17
2018-09-25T07:43:47.015Z,2.42
2018-09-25T07:46:21.976Z,5.60
2018-09-25T07:48:56.524Z,8.83
2018-09-25T07:51:31.318Z,9.23
2018-09-25T07:54:06.349Z,8.93
2018-09-25T07:56:41.577Z,7.20
2018-09-25T07:59:16.244Z,8.80
2018-09-25T08:01:50.992Z,7.77
2018-09-25T08:04:26.156Z,5.90
2018-09-25T08:07:00.937Z,5.95
2018-09-25T08:09:35.854Z,6.13
2018-09-25T08:12:10.852Z,4.70
2018-09-25T08:14:45.891Z,3.83
2018-09-25T08:17:20.749Z,2.87
2018-09-25T08:19:55.685Z,3.70
2018-09-25T08:22:30.295Z,3.57
2018-09-25T08:25:05.282Z,4.00
2018-09-25T08:27:40.131Z,2.70
2018-09-25T08:30:14.709Z,2.87
2018-09-25T08:32:49.753Z,2.97
2018-09-25T08:35:24.493Z,2.67
2018-09-25T08:37:59.291Z,2.70
2018-09-25T08:40:34.182Z,2.90
2018-09-25T08:43:09.185Z,2.70
2018-09-25T08:45:44.087Z,2.73
2018-09-25T08:48:18.943Z,3.70
2018-09-25T08:50:53.710Z,2.87
2018-09-25T08:53:28.493Z,3.00
2018-09-25T08:56:03.714Z,2.35
2018-09-25T08:58:38.428Z,3.00
2018-09-25T09:01:13.086Z,2.07
2018-09-25T09:03:47.819Z,2.23
2018-09-25T09:06:22.434Z,2.50
2018-09-25T09:08:57.429Z,2.73
2018-09-25T09:11:32.124Z,2.60
2018-09-25T09:14:06.749Z,2.60
2018-09-25T09:16:41.430Z,2.80
2018-09-25T09:19:16.304Z,1.93
2018-09-25T09:21:50.966Z,2.20
2018-09-25T09:24:25.844Z,2.47
2018-09-25T09:27:00.539Z,2.17
2018-09-25T09:29:35.296Z,3.37
2018-09-25T09:32:10.154Z,2.10
2018-09-25T09:34:45.054Z,2.35
2018-09-25T09:37:20.750Z,1.90
2018-09-25T09:39:55.674Z,1.90
2018-09-25T09:42:30.350Z,2.00
2018-09-25T09:45:05.021Z,1.73
2018-09-25T09:47:40.032Z,2.23
2018-09-25T09:50:14.670Z,1.83
2018-09-25T09:52:49.639Z,1.93
2018-09-25T09:55:24.691Z,1.20
2018-09-25T09:57:59.508Z,2.00
2018-09-25T10:00:34.619Z,1.40
2018-09-25T10:03:09.413Z,1.73
2018-09-25T10:05:44.268Z,1.53
2018-09-25T10:08:19.075Z,2.10
2018-09-25T10:10:53.826Z,1.57
2018-09-25T10:13:28.716Z,1.65
2018-09-25T10:16:03.717Z,1.50
2018-09-25T10:18:38.526Z,1.53
2018-09-25T10:21:13.215Z,2.40
2018-09-25T10:23:47.933Z,1.73
2018-09-25T10:26:22.941Z,1.73
2018-09-25T10:28:57.892Z,1.90
2018-09-25T10:31:32.601Z,2.70
2018-09-25T10:34:07.120Z,2.83
2018-09-25T10:36:41.956Z,2.23
2018-09-25T10:39:16.438Z,1.87
2018-09-25T10:41:51.780Z,1.60
2018-09-25T10:44:26.441Z,1.67
2018-09-25T10:47:01.443Z,1.77
2018-09-25T10:49:36.136Z,1.47
2018-09-25T10:52:10.985Z,1.33
2018-09-25T10:54:46.077Z,2.20
2018-09-25T10:57:20.722Z,1.30
2018-09-25T10:59:55.471Z,1.63
2018-09-25T11:02:29.969Z,1.70
2018-09-25T11:05:04.485Z,1.37
2018-09-25T11:07:40.148Z,1.20
2018-09-25T11:10:15.043Z,1.23
2018-09-25T11:12:49.667Z,1.37
2018-09-25T11:15:24.724Z,1.57
2018-09-25T11:17:59.392Z,1.93
2018-09-25T11:20:34.384Z,1.67
2018-09-25T11:23:09.114Z,1.40
2018-09-25T11:25:43.779Z,1.33
2018-09-25T11:28:18.784Z,0.90
2018-09-25T11:30:53.683Z,1.02
2018-09-25T11:33:28.308Z,1.00
2018-09-25T11:36:03.170Z,1.43
2018-09-25T11:38:38.308Z,1.07
2018-09-25T11:41:13.149Z,1.33
2018-09-25T11:43:47.861Z,1.00
2018-09-25T11:46:22.633Z,0.93
2018-09-25T11:48:57.291Z,1.80
2018-09-25T11:51:32.241Z,1.10
2018-09-25T11:54:07.113Z,1.27
2018-09-25T11:56:41.924Z,1.05
2018-09-25T11:59:16.939Z,0.90
2018-09-25T12:01:51.820Z,1.83
2018-09-25T12:04:26.743Z,2.00
2018-09-25T12:07:01.852Z,1.72
2018-09-25T12:09:36.657Z,1.63
2018-09-25T12:12:11.540Z,1.73
2018-09-25T12:14:46.454Z,1.37
2018-09-25T12:17:21.510Z,1.90
2018-09-25T12:19:56.190Z,2.00
2018-09-25T12:22:30.817Z,1.80
2018-09-25T12:25:05.761Z,2.05
2018-09-25T12:27:40.570Z,2.00
2018-09-25T12:30:15.093Z,1.97
2018-09-25T12:32:49.830Z,1.67
2018-09-25T12:35:25.675Z,1.57
2018-09-25T12:38:00.415Z,1.60
2018-09-25T12:40:35.132Z,1.67
2018-09-25T12:43:09.657Z,2.40
2018-09-25T12:45:44.335Z,1.40
2018-09-25T12:48:19.094Z,1.63
2018-09-25T12:50:53.910Z,1.20
2018-09-25T12:53:28.916Z,1.43
2018-09-25T12:56:03.866Z,1.80
2018-09-25T12:58:38.540Z,1.57
2018-09-25T13:01:13.168Z,1.13
2018-09-25T13:03:48.046Z,1.47
2018-09-25T13:06:23.123Z,1.67
2018-09-25T13:08:57.909Z,1.37
2018-09-25T13:11:32.663Z,1.10
2018-09-25T13:14:07.375Z,1.60
2018-09-25T13:16:42.136Z,1.70
2018-09-25T13:19:17.272Z,2.10
2018-09-25T13:21:52.013Z,1.93
2018-09-25T13:24:27.467Z,1.10
2018-09-25T13:27:02.132Z,1.10
2018-09-25T13:29:37.013Z,1.10
2018-09-25T13:32:12.549Z,1.32
2018-09-25T13:34:47.313Z,1.20
2018-09-25T13:37:22.161Z,1.87
2018-09-25T13:39:57.705Z,1.10
2018-09-25T13:42:32.538Z,1.15
2018-09-25T13:45:07.210Z,1.23
2018-09-25T13:47:42.078Z,1.10
2018-09-25T13:50:16.799Z,1.43
2018-09-25T13:52:51.805Z,1.43
2018-09-25T13:55:26.647Z,1.57
2018-09-25T13:58:01.353Z,1.10
2018-09-25T14:00:36.132Z,0.90
2018-09-25T14:03:11.263Z,1.23
2018-09-25T14:05:46.062Z,1.03
2018-09-25T14:08:20.861Z,1.03
2018-09-25T14:10:55.920Z,1.30
2018-09-25T14:13:30.917Z,0.70
2018-09-25T14:16:05.556Z,1.33
2018-09-25T14:18:40.387Z,1.23
2018-09-25T14:21:15.097Z,1.13
2018-09-25T14:23:49.886Z,1.20
2018-09-25T14:26:24.757Z,1.10
2018-09-25T14:28:59.399Z,1.20
2018-09-25T14:31:34.230Z,1.50
2018-09-25T14:34:09.008Z,2.67
2018-09-25T14:36:43.888Z,3.17
2018-09-25T14:39:18.713Z,3.50
2018-09-25T14:41:53.636Z,3.20
2018-09-25T14:44:28.455Z,2.83
2018-09-25T14:47:03.430Z,4.10
2018-09-25T14:49:38.301Z,6.10
2018-09-25T14:52:13.115Z,4.97
2018-09-25T14:54:48.285Z,5.40
2018-09-25T14:57:23.036Z,5.30
2018-09-25T14:59:57.967Z,5.20
2018-09-25T15:02:32.594Z,6.00
2018-09-25T15:05:07.096Z,5.50
2018-09-25T15:07:41.616Z,5.47
2018-09-25T15:10:16.277Z,7.15
2018-09-25T15:12:50.968Z,6.20
2018-09-25T15:15:25.868Z,6.50
2018-09-25T15:18:00.710Z,5.83
2018-09-25T15:20:35.451Z,7.23
2018-09-25T15:23:10.256Z,5.93
2018-09-25T15:25:45.128Z,6.20
2018-09-25T15:28:19.900Z,5.57
2018-09-25T15:30:54.538Z,5.27
2018-09-25T15:33:29.491Z,4.90
2018-09-25T15:36:04.188Z,6.07
2018-09-25T15:38:38.829Z,6.17
2018-09-25T15:41:13.574Z,5.27
2018-09-25T15:43:48.342Z,5.30
2018-09-25T15:46:23.012Z,4.20
2018-09-25T15:48:57.688Z,5.30
2018-09-25T15:51:32.705Z,4.90
2018-09-25T15:54:07.501Z,5.10
2018-09-25T15:56:42.312Z,5.37
2018-09-25T15:59:17.021Z,5.05
2018-09-25T16:01:51.534Z,4.57
2018-09-25T16:04:26.066Z,4.40
2018-09-25T16:07:00.817Z,4.73
2018-09-25T16:09:35.452Z,4.70
2018-09-25T16:12:12.020Z,4.83
2018-09-25T16:14:46.670Z,3.50
2018-09-25T16:17:21.336Z,3.67
2018-09-25T16:19:56.149Z,4.50
2018-09-25T16:22:31.936Z,4.00
2018-09-25T16:25:06.437Z,3.60
2018-09-25T16:27:41.208Z,3.50
2018-09-25T16:30:16.086Z,2.80
2018-09-25T16:32:50.987Z,3.13
2018-09-25T16:35:25.989Z,2.93
2018-09-25T16:38:00.931Z,3.20
2018-09-25T16:40:35.748Z,3.70
2018-09-25T16:43:10.520Z,3.35
2018-09-25T16:45:45.416Z,3.53
2018-09-25T16:48:20.305Z,3.03
2018-09-25T16:50:55.121Z,3.00
2018-09-25T16:53:29.840Z,2.70
2018-09-25T16:56:04.456Z,2.57
2018-09-25T16:58:39.096Z,3.50
2018-09-25T17:01:13.604Z,2.75
2018-09-25T17:03:48.344Z,2.10
2018-09-25T17:06:23.215Z,2.53
2018-09-25T17:08:58.408Z,3.00
2018-09-25T17:11:33.136Z,2.87
2018-09-25T17:14:07.749Z,2.40
2018-09-25T17:16:42.405Z,2.80
2018-09-25T17:19:17.036Z,2.37
2018-09-25T17:21:51.829Z,2.30
2018-09-25T17:24:26.621Z,1.90
2018-09-25T17:27:01.252Z,2.30
2018-09-25T17:29:36.254Z,2.03
2018-09-25T17:32:11.197Z,2.25
2018-09-25T17:34:45.914Z,2.15
2018-09-25T17:37:20.936Z,3.33
2018-09-25T17:39:55.479Z,2.10
2018-09-25T17:42:30.120Z,1.77
2018-09-25T17:45:04.979Z,1.97
2018-09-25T17:47:39.504Z,2.37
2018-09-25T17:50:14.177Z,2.67
2018-09-25T17:52:49.048Z,2.03
2018-09-25T17:55:24.105Z,1.67
2018-09-25T17:57:58.753Z,1.87
2018-09-25T18:00:33.654Z,2.03
2018-09-25T18:03:08.506Z,2.63
2018-09-25T18:05:43.253Z,2.03
2018-09-25T18:08:18.334Z,2.27
2018-09-25T18:10:59.934Z,1.83
2018-09-25T18:13:34.844Z,1.70
2018-09-25T18:16:09.726Z,2.10
2018-09-25T18:18:44.735Z,2.20
2018-09-25T18:21:20.705Z,3.10
2018-09-25T18:23:55.749Z,2.10
2018-09-25T18:26:30.523Z,2.07
2018-09-25T18:29:05.370Z,2.53
2018-09-25T18:31:40.266Z,1.63
2018-09-25T18:34:15.163Z,1.80
2018-09-25T18:36:49.935Z,1.80
2018-09-25T18:39:24.689Z,2.03
2018-09-25T18:41:59.413Z,1.73
2018-09-25T18:44:35.745Z,1.90
2018-09-25T18:47:10.456Z,1.77
2018-09-25T18:49:45.081Z,1.83
2018-09-25T18:52:19.841Z,1.67
2018-09-25T18:54:54.568Z,2.00
2018-09-25T18:57:29.740Z,1.40
2018-09-25T19:00:05.501Z,1.60
2018-09-25T19:02:40.184Z,1.70
2018-09-25T19:05:15.052Z,1.67
2018-09-25T19:07:50.141Z,2.77
2018-09-25T19:10:25.018Z,1.17
2018-09-25T19:12:59.856Z,1.67
2018-09-25T19:15:34.513Z,1.40
2018-09-25T19:18:09.263Z,1.53
2018-09-25T19:20:43.962Z,1.83
2018-09-25T19:23:18.809Z,1.65
2018-09-25T19:25:53.842Z,1.30
2018-09-25T19:28:29.069Z,1.43
2018-09-25T19:31:03.833Z,1.40
2018-09-25T19:33:38.704Z,1.20
2018-09-25T19:36:13.450Z,1.73
2018-09-25T19:38:48.109Z,1.40
2018-09-25T19:41:22.968Z,1.53
2018-09-25T19:43:57.703Z,1.17
2018-09-25T19:46:32.644Z,1.20
2018-09-25T19:49:07.289Z,1.20
2018-09-25T19:51:42.153Z,1.10
2018-09-25T19:54:17.368Z,1.90
2018-09-25T19:56:52.059Z,1.27
2018-09-25T19:59:26.782Z,1.80
2018-09-25T20:02:01.448Z,1.30
2018-09-25T20:04:37.093Z,1.10
2018-09-25T20:07:11.786Z,1.50
2018-09-25T20:09:46.811Z,1.90
2018-09-25T20:12:21.794Z,1.20
2018-09-25T20:14:56.608Z,2.17
2018-09-25T20:17:31.465Z,1.57
2018-09-25T20:20:06.264Z,1.13
2018-09-25T20:22:41.165Z,1.37
2018-09-25T20:25:15.928Z,1.80
2018-09-25T20:27:50.570Z,1.43
2018-09-25T20:30:25.380Z,1.30
2018-09-25T20:33:00.426Z,1.20
2018-09-25T20:35:35.188Z,1.20
2018-09-25T20:38:09.910Z,0.90
2018-09-25T20:40:44.448Z,1.50
2018-09-25T20:43:18.989Z,1.63
2018-09-25T20:45:53.554Z,1.37
2018-09-25T20:48:28.197Z,0.97
2018-09-25T20:51:03.039Z,1.20
2018-09-25T20:53:38.196Z,1.10
2018-09-25T20:56:12.809Z,1.27
2018-09-25T20:58:47.687Z,1.97
2018-09-25T21:01:22.355Z,1.43
2018-09-25T21:03:57.218Z,1.20
2018-09-25T21:06:31.857Z,1.17
2018-09-25T21:09:06.418Z,1.50
2018-09-25T21:11:41.381Z,1.10
2018-09-25T21:14:16.504Z,1.22
2018-09-25T21:16:51.165Z,1.30
2018-09-25T21:19:26.103Z,1.30
2018-09-25T21:22:00.704Z,1.10
2018-09-25T21:24:35.333Z,1.30
2018-09-25T21:27:10.017Z,1.53
2018-09-25T21:29:45.007Z,0.93
2018-09-25T21:32:19.891Z,1.33
2018-09-25T21:34:54.777Z,0.90
2018-09-25T21:37:29.828Z,1.30
2018-09-25T21:40:04.689Z,1.47
2018-09-25T21:42:39.503Z,1.07
2018-09-25T21:45:14.173Z,1.57
2018-09-25T21:47:49.126Z,1.27
2018-09-25T21:50:23.986Z,1.33
2018-09-25T21:52:58.513Z,1.10
2018-09-25T21:55:33.017Z,1.27
2018-09-25T21:58:07.565Z,1.40
2018-09-25T22:00:42.354Z,1.03
2018-09-25T22:03:17.224Z,1.97
2018-09-25T22:05:52.085Z,1.20
2018-09-25T22:08:27.340Z,1.80
2018-09-25T22:11:02.117Z,0.90
2018-09-25T22:13:36.839Z,1.07
2018-09-25T22:16:11.700Z,1.10
2018-09-25T22:18:46.342Z,0.90
2018-09-25T22:21:21.209Z,1.22
2018-09-25T22:23:56.073Z,1.33
2018-09-25T22:26:30.826Z,1.37
2018-09-25T22:29:05.553Z,1.33
2018-09-25T22:31:40.964Z,1.00
2018-09-25T22:34:15.860Z,1.10
2018-09-25T22:36:51.088Z,0.97
2018-09-25T22:39:25.729Z,1.00
2018-09-25T22:42:00.709Z,1.23
2018-09-25T22:44:35.447Z,1.00
2018-09-25T22:47:10.648Z,1.00
2018-09-25T22:49:45.548Z,0.80
2018-09-25T22:52:20.491Z,1.53
2018-09-25T22:54:55.277Z,0.80
2018-09-25T22:57:30.140Z,1.00
2018-09-25T23:00:04.759Z,1.00
2018-09-25T23:02:39.541Z,1.17
2018-09-25T23:05:14.783Z,0.60
2018-09-25T23:07:49.581Z,0.90
2018-09-25T23:10:24.385Z,1.30
2018-09-25T23:12:59.370Z,1.50
2018-09-25T23:15:34.001Z,0.80
2018-09-25T23:18:08.520Z,1.00
2018-09-25T23:20:43.120Z,0.83
2018-09-25T23:23:17.918Z,0.93
2018-09-25T23:25:52.993Z,0.70
2018-09-25T23:28:28.035Z,0.95
2018-09-25T23:31:02.767Z,0.90
2018-09-25T23:33:37.889Z,0.83
2018-09-25T23:36:12.761Z,1.00
2018-09-25T23:38:47.593Z,0.83
2018-09-25T23:41:22.300Z,1.00
2018-09-25T23:43:57.081Z,1.07
2018-09-25T23:46:35.598Z,1.10
2018-09-25T23:49:10.703Z,0.70
2018-09-25T23:51:54.165Z,0.60
2018-09-25T23:54:28.081Z,0.90
2018-09-25T23:57:10.744Z,0.90
2018-09-25T23:59:42.769Z,0.87
